Time;durP1;ratioP1;P1;durP2;ratioP2;P2;SDS_P1;SDS_P2;PMS_P1;PMS_P2;Temp;Humidity;BMP_temperature;BMP_pressure;BME280_temperature;BME280_humidity;BME280_pressure;Samples;Min_cycle;Max_cycle;Signal;HPM_P1;HPM_P2
2023/06/08 00:00:44;;;;;;;1.05;0.95;;;18.70;99.90;;;19.03;100.00;100407.28;4866863;29;20256;-80
2023/06/08 00:03:12;;;;;;;1.33;1.23;;;18.70;99.90;;;19.08;100.00;100402.69;4890728;29;20716;-79
2023/06/08 00:05:47;;;;;;;0.60;0.55;;;18.60;99.90;;;18.99;100.00;100395.78;4893160;29;20236;-79
2023/06/08 00:08:14;;;;;;;0.77;0.77;;;18.60;99.90;;;18.93;100.00;100403.97;4895909;29;20239;-79
2023/06/08 00:10:43;;;;;;;0.77;0.77;;;18.60;99.90;;;18.92;100.00;100407.56;4892619;29;20292;-85
2023/06/08 00:13:11;;;;;;;0.57;0.52;;;18.50;99.90;;;18.88;100.00;100402.31;4886888;29;20247;-82
2023/06/08 00:15:39;;;;;;;1.08;0.82;;;18.50;99.90;;;18.87;100.00;100409.50;4893793;29;21102;-79
2023/06/08 00:18:09;;;;;;;0.40;0.40;;;18.50;99.90;;;18.71;100.00;100414.34;4896318;29;20235;-80
2023/06/08 00:20:36;;;;;;;0.73;0.70;;;18.30;99.90;;;18.84;100.00;100407.75;4890125;29;20347;-81
2023/06/08 00:23:04;;;;;;;0.93;0.70;;;18.30;99.90;;;18.67;100.00;100406.41;4877795;29;20240;-79
2023/06/08 00:25:32;;;;;;;0.50;0.50;;;18.30;99.90;;;18.70;100.00;100417.94;4898712;29;20315;-79
2023/06/08 00:27:59;;;;;;;0.77;0.70;;;18.30;99.90;;;18.60;100.00;100419.06;4893290;29;20244;-80
2023/06/08 00:30:26;;;;;;;1.42;0.93;;;18.10;99.90;;;18.49;100.00;100416.63;4892947;29;20254;-79
2023/06/08 00:32:54;;;;;;;0.80;0.80;;;18.10;99.90;;;18.53;100.00;100429.03;4893160;29;20240;-79
2023/06/08 00:35:21;;;;;;;0.52;0.50;;;14.50;99.90;;;18.52;100.00;100431.75;4891648;29;20231;-82
2023/06/08 00:37:49;;;;;;;0.95;0.70;;;18.10;99.90;;;18.52;100.00;100429.06;4893259;29;20240;-81
2023/06/08 00:40:16;;;;;;;0.47;0.47;;;18.10;99.90;;;18.47;100.00;100428.28;4877394;29;20283;-83
2023/06/08 00:42:43;;;;;;;0.20;0.20;;;18.10;99.90;;;18.39;100.00;100430.28;4892354;29;20239;-80
2023/06/08 00:45:11;;;;;;;0.70;0.68;;;18.00;99.90;;;18.27;100.00;100431.44;4902621;29;20313;-80
2023/06/08 00:47:39;;;;;;;0.50;0.45;;;17.90;99.90;;;18.17;100.00;100432.53;4907916;29;20244;-80
2023/06/08 00:50:09;;;;;;;0.77;0.70;;;17.80;99.90;;;18.17;100.00;100437.88;4889851;29;20231;-80
2023/06/08 00:52:39;;;;;;;0.63;0.60;;;17.80;99.90;;;18.23;100.00;100448.47;4877660;29;20244;-83
2023/06/08 00:55:08;;;;;;;0.60;0.50;;;17.80;99.90;;;18.26;100.00;100455.56;4893326;29;20288;-81
2023/06/08 00:57:36;;;;;;;1.58;1.10;;;17.80;99.90;;;18.19;100.00;100439.59;4891439;29;20267;-80
2023/06/08 01:00:08;;;;;;;2.15;1.00;;;17.80;99.90;;;18.12;100.00;100461.19;4894458;29;20239;-80
2023/06/08 01:02:36;;;;;;;0.60;0.60;;;17.70;99.90;;;18.03;100.00;100459.56;4889058;29;20327;-83
2023/06/08 01:05:05;;;;;;;1.10;0.98;;;17.70;99.90;;;18.06;100.00;100467.53;4878071;29;20232;-83
2023/06/08 01:07:51;;;;;;;1.30;1.00;;;16.70;99.90;;;18.01;100.00;100469.44;4888432;29;20243;-79
2023/06/08 01:10:33;;;;;;;1.35;1.10;;;17.70;99.90;;;18.00;100.00;100474.81;4892035;29;20239;-79
2023/06/08 01:13:12;;;;;;;1.65;1.17;;;17.60;99.90;;;17.97;100.00;100477.56;4896537;29;20238;-79
2023/06/08 01:15:46;;;;;;;1.27;1.02;;;17.60;99.90;;;17.85;100.00;100484.03;4892589;29;20240;-79
2023/06/08 01:18:17;;;;;;;1.70;1.40;;;17.50;99.90;;;17.87;100.00;100488.44;4877776;29;20247;-82
2023/06/08 01:21:24;;;;;;;1.77;1.38;;;17.50;99.90;;;17.88;100.00;100500.91;4890779;29;20697;-85
2023/06/08 01:24:23;;;;;;;1.40;1.08;;;17.50;99.90;;;17.85;100.00;100506.31;4862999;29;20239;-81
2023/06/08 01:26:51;;;;;;;1.52;1.10;;;17.50;99.90;;;17.77;100.00;100507.38;4893247;29;20244;-80
2023/06/08 01:29:25;;;;;;;1.92;1.08;;;17.40;99.90;;;17.74;100.00;100508.31;4894075;29;20246;-80
2023/06/08 01:31:53;;;;;;;0.90;0.90;;;17.40;99.90;;;17.71;100.00;100515.53;4872727;29;20253;-81
2023/06/08 01:34:21;;;;;;;1.80;1.70;;;17.30;99.90;;;17.65;100.00;100527.19;4893298;29;20236;-80
2023/06/08 01:37:03;;;;;;;0.85;0.77;;;17.30;99.90;;;17.51;100.00;100531.91;4890083;29;20247;-80
2023/06/08 01:39:55;;;;;;;0.80;0.80;;;17.20;99.90;;;17.55;100.00;100538.97;4892961;29;20246;-81
2023/06/08 01:42:26;;;;;;;2.85;1.98;;;17.10;99.90;;;17.55;100.00;100541.63;4885869;29;20247;-80
2023/06/08 01:45:00;;;;;;;1.60;1.35;;;17.10;99.90;;;17.48;100.00;100543.53;4879909;29;20242;-79
2023/06/08 01:47:40;;;;;;;1.13;1.02;;;17.10;99.90;;;17.41;100.00;100546.34;4892161;29;20241;-79
2023/06/08 01:50:08;;;;;;;0.85;0.63;;;17.00;99.90;;;17.48;100.00;100551.56;4894960;29;20243;-79
2023/06/08 01:52:38;;;;;;;1.00;0.88;;;17.10;99.90;;;17.44;100.00;100548.97;4894466;29;20239;-81
2023/06/08 01:55:17;;;;;;;1.52;1.27;;;17.10;99.90;;;17.38;100.00;100563.31;4893126;29;20590;-80
2023/06/08 01:57:45;;;;;;;1.80;1.35;;;17.00;99.90;;;17.42;100.00;100561.47;4892046;29;20235;-80
2023/06/08 02:00:15;;;;;;;1.08;0.90;;;17.00;99.90;;;17.38;100.00;100562.44;4891572;29;20720;-80
2023/06/08 02:02:44;;;;;;;1.25;1.02;;;17.00;99.90;;;17.42;100.00;100573.03;4893293;29;20243;-79
2023/06/08 02:05:13;;;;;;;0.60;0.60;;;17.00;99.90;;;17.39;100.00;100565.06;4894839;29;20236;-80
2023/06/08 02:07:42;;;;;;;0.93;0.80;;;17.00;99.90;;;17.32;100.00;100557.19;4895763;29;20243;-79
2023/06/08 02:10:11;;;;;;;1.30;1.20;;;16.90;99.90;;;17.32;100.00;100567.88;4891699;29;20232;-81
2023/06/08 02:12:39;;;;;;;1.27;0.95;;;16.90;99.90;;;17.22;100.00;100573.38;4891564;29;20235;-80
2023/06/08 02:15:07;;;;;;;1.13;1.00;;;16.80;99.90;;;17.19;100.00;100575.22;4887224;29;20311;-80
2023/06/08 02:17:35;;;;;;;0.82;0.70;;;16.90;99.90;;;17.23;100.00;100583.16;4891962;29;20248;-81
2023/06/08 02:20:09;;;;;;;1.48;1.38;;;16.90;99.90;;;17.22;100.00;100583.19;4908266;29;20259;-80
2023/06/08 02:22:38;;;;;;;1.27;0.85;;;16.90;99.90;;;17.18;100.00;100585.03;4893279;29;20239;-80
2023/06/08 02:25:11;;;;;;;1.58;1.48;;;16.80;99.90;;;17.16;100.00;100581.50;4894822;29;20236;-83
2023/06/08 02:27:39;;;;;;;1.25;1.15;;;16.80;99.90;;;17.16;100.00;100599.31;4892531;29;20243;-80
2023/06/08 02:30:09;;;;;;;0.60;0.60;;;16.80;99.90;;;17.11;100.00;100590.47;4893302;29;20693;-80
2023/06/08 02:32:41;;;;;;;0.98;0.85;;;16.80;99.90;;;17.13;100.00;100592.22;4888384;29;20271;-81
2023/06/08 02:35:09;;;;;;;1.42;1.25;;;16.70;99.90;;;17.10;100.00;100599.41;4891644;29;20274;-80
2023/06/08 02:37:36;;;;;;;1.27;1.10;;;16.70;99.90;;;17.07;100.00;100602.13;4892407;29;20243;-80
2023/06/08 02:40:04;;;;;;;1.40;1.30;;;16.70;99.90;;;17.03;100.00;100597.72;4892438;29;20239;-80
2023/06/08 02:42:32;;;;;;;0.90;0.90;;;16.60;99.90;;;17.03;100.00;100603.06;4892238;29;20239;-81
2023/06/08 02:44:59;;;;;;;1.05;0.95;;;16.60;99.90;;;16.98;100.00;100599.59;4885578;29;20247;-81
2023/06/08 02:47:26;;;;;;;1.20;1.02;;;16.60;99.90;;;16.96;100.00;100604.94;4888994;29;20254;-79
2023/06/08 02:49:53;;;;;;;0.80;0.73;;;16.60;99.90;;;17.04;100.00;100595.03;4888605;29;20240;-79
2023/06/08 02:52:20;;;;;;;1.33;1.23;;;16.60;99.90;;;17.07;100.00;100584.31;4892894;29;20239;-80
2023/06/08 02:54:48;;;;;;;1.02;0.93;;;16.60;99.90;;;17.04;100.00;100587.03;4893729;29;20247;-80
2023/06/08 02:57:15;;;;;;;0.68;0.63;;;16.60;99.90;;;17.05;100.00;100587.91;4893284;29;20235;-80
2023/06/08 02:59:43;;;;;;;0.95;0.85;;;16.60;99.90;;;17.00;100.00;100573.72;4890332;29;20617;-80
2023/06/08 03:02:10;;;;;;;0.93;0.75;;;16.60;99.90;;;16.98;100.00;100573.75;4891438;29;20228;-79
2023/06/08 03:04:38;;;;;;;2.13;2.00;;;16.60;99.90;;;16.92;100.00;100572.06;4892444;29;20348;-80
2023/06/08 03:07:09;;;;;;;1.13;1.00;;;16.60;99.90;;;16.85;100.00;100578.34;4889294;29;20256;-81
2023/06/08 03:09:36;;;;;;;1.15;0.98;;;16.50;99.90;;;16.76;100.00;100581.16;4893269;29;20338;-79
2023/06/08 03:12:05;;;;;;;1.00;0.90;;;16.40;99.90;;;16.78;100.00;100597.16;4892024;29;20280;-80
2023/06/08 03:14:32;;;;;;;0.80;0.80;;;16.40;99.90;;;16.75;100.00;100600.75;4886151;29;20327;-79
2023/06/08 03:17:02;;;;;;;0.75;0.70;;;16.40;99.90;;;16.75;100.00;100595.41;4887392;29;20234;-80
2023/06/08 03:19:30;;;;;;;0.70;0.65;;;16.40;99.90;;;16.79;100.00;100597.16;4893398;29;20240;-79
2023/06/08 03:22:04;;;;;;;1.10;1.00;;;16.40;99.90;;;16.75;100.00;100605.22;4896440;29;20235;-79
2023/06/08 03:24:32;;;;;;;0.80;0.80;;;16.40;99.90;;;16.78;100.00;100598.03;4896079;29;20685;-79
2023/06/08 03:27:02;;;;;;;0.60;0.60;;;16.40;99.90;;;16.78;100.00;100598.03;4891465;29;20264;-79
2023/06/08 03:29:30;;;;;;;0.75;0.70;;;16.40;99.90;;;16.69;100.00;100603.50;4896086;29;20258;-79
2023/06/08 03:31:58;;;;;;;0.55;0.55;;;;;;;16.65;100.00;100612.47;4896578;29;20240;-79
2023/06/08 03:34:26;;;;;;;0.80;0.80;;;16.30;99.90;;;16.62;100.00;100621.38;4895492;29;20231;-80
2023/06/08 03:36:55;;;;;;;0.80;0.75;;;16.20;99.90;;;16.64;100.00;100608.88;4876360;29;20240;-80
2023/06/08 03:39:22;;;;;;;0.60;0.60;;;16.20;99.90;;;16.58;100.00;100610.75;4892362;29;20600;-80
2023/06/08 03:41:50;;;;;;;0.65;0.65;;;16.20;99.90;;;16.59;100.00;100609.84;4897000;29;20235;-80
2023/06/08 03:44:18;;;;;;;0.70;0.70;;;16.20;99.90;;;16.59;100.00;100613.41;4895960;29;20242;-80
2023/06/08 03:46:46;;;;;;;1.08;0.88;;;16.20;99.90;;;16.60;100.00;100611.59;4894804;29;20236;-79
2023/06/08 03:49:14;;;;;;;0.70;0.70;;;16.20;99.90;;;16.61;100.00;100616.94;4891899;29;20251;-82
2023/06/08 03:51:41;;;;;;;1.00;0.90;;;16.20;99.90;;;16.63;100.00;100615.13;4885864;29;20255;-80
2023/06/08 03:54:08;;;;;;;0.57;0.57;;;16.30;99.90;;;16.62;100.00;100616.03;4886428;29;20254;-79
2023/06/08 03:56:35;;;;;;;1.33;1.00;;;16.20;99.90;;;16.62;100.00;100615.16;4898433;29;20961;-82
2023/06/08 03:59:03;;;;;;;0.85;0.85;;;16.20;99.90;;;16.67;100.00;100623.13;4889493;29;20243;-82
2023/06/08 04:01:31;;;;;;;1.15;0.98;;;16.30;99.90;;;16.63;100.00;100622.25;4887271;29;20247;-81
2023/06/08 04:03:58;;;;;;;1.33;1.23;;;16.30;99.90;;;16.66;100.00;100608.91;4892287;29;20728;-80
2023/06/08 04:06:33;;;;;;;1.08;0.80;;;16.30;99.90;;;16.60;100.00;100617.84;4893004;29;20239;-80
2023/06/08 04:09:01;;;;;;;0.70;0.70;;;16.30;99.90;;;16.71;100.00;100607.03;4892126;29;20321;-79
2023/06/08 04:11:28;;;;;;;0.80;0.80;;;16.30;99.90;;;16.61;100.00;100616.94;4894760;29;20685;-79
2023/06/08 04:13:55;;;;;;;0.90;0.88;;;16.30;99.90;;;16.65;100.00;100625.81;4893941;29;20240;-79
2023/06/08 04:16:22;;;;;;;1.05;0.95;;;16.30;99.90;;;16.67;100.00;100632.03;4893001;29;20236;-79
2023/06/08 04:18:50;;;;;;;0.82;0.82;;;16.30;99.90;;;16.66;100.00;100624.91;4896304;29;20232;-79
2023/06/08 04:21:17;;;;;;;0.80;0.77;;;16.30;99.90;;;16.66;100.00;100624.03;4892672;29;20700;-80
2023/06/08 04:23:46;;;;;;;0.65;0.60;;;16.30;99.90;;;16.59;100.00;100624.06;4893157;29;20232;-80
2023/06/08 04:26:14;;;;;;;0.73;0.73;;;16.20;99.90;;;16.71;100.00;100622.19;4896089;29;20231;-81
2023/06/08 04:28:41;;;;;;;0.90;0.90;;;16.30;99.90;;;16.67;100.00;100616.00;4890299;29;20242;-80
2023/06/08 04:31:09;;;;;;;0.60;0.60;;;16.30;99.90;;;16.74;100.00;100609.69;4894916;29;20335;-81
2023/06/08 04:33:36;;;;;;;0.80;0.80;;;16.40;99.90;;;16.73;100.00;100620.38;4891078;29;20243;-81
2023/06/08 04:36:04;;;;;;;1.20;0.98;;;;;;;16.72;100.00;100616.81;4894788;29;20247;-80
2023/06/08 04:38:31;;;;;;;1.13;0.93;;;;;;;16.77;100.00;100624.78;4892283;29;20259;-81
2023/06/08 04:41:01;;;;;;;1.60;1.20;;;;;;;16.81;100.00;100622.03;4896998;29;20246;-81
2023/06/08 04:43:31;;;;;;;1.38;1.27;;;;;;;16.82;100.00;100630.94;4895231;29;20236;-79
2023/06/08 04:45:59;;;;;;;1.05;0.95;;;;;;;16.92;100.00;100629.94;4893359;29;20228;-83
2023/06/08 04:48:28;;;;;;;3.40;1.42;;;16.50;99.90;;;16.99;100.00;100620.06;4889986;29;20248;-77
2023/06/08 04:51:03;;;;;;;1.42;1.33;;;16.70;99.90;;;17.04;100.00;100615.53;4872052;29;20239;-78
2023/06/08 04:53:34;;;;;;;1.05;0.70;;;16.70;99.90;;;17.09;100.00;100617.22;4888490;29;20232;-78
2023/06/08 04:56:02;;;;;;;1.20;1.10;;;16.80;99.90;;;17.16;100.00;100610.00;4897710;29;20246;-78
2023/06/08 04:58:31;;;;;;;0.70;0.70;;;16.80;99.90;;;17.22;100.00;100605.44;4892671;29;20733;-78
2023/06/08 05:00:58;;;;;;;1.27;0.80;;;16.90;99.90;;;17.35;100.00;100602.59;4894233;29;20264;-78
2023/06/08 05:03:26;;;;;;;0.50;0.50;;;16.90;99.90;;;17.36;100.00;100607.91;4890371;29;20234;-78
2023/06/08 05:05:54;;;;;;;0.75;0.75;;;17.00;99.90;;;17.42;100.00;100604.25;4894216;29;20240;-78
2023/06/08 05:08:22;;;;;;;1.25;1.15;;;17.00;99.90;;;17.51;100.00;100596.97;4894824;29;20232;-78
2023/06/08 05:10:49;;;;;;;0.73;0.73;;;17.10;99.90;;;17.50;100.00;100603.22;4889438;29;20251;-78
2023/06/08 05:13:16;;;;;;;0.60;0.60;;;17.10;99.90;;;17.47;100.00;100592.56;4891347;29;20238;-78
2023/06/08 05:15:43;;;;;;;0.93;0.88;;;17.10;99.90;;;17.56;100.00;100597.75;4892938;29;20232;-79
2023/06/08 05:18:11;;;;;;;0.57;0.57;;;17.20;99.90;;;17.60;100.00;100596.81;4894367;29;20328;-79
2023/06/08 05:20:38;;;;;;;4.45;1.20;;;17.20;99.90;;;17.68;100.00;100604.72;4890484;29;20244;-80
2023/06/08 05:23:05;;;;;;;0.70;0.63;;;17.30;99.90;;;17.77;100.00;100595.66;4889614;29;20241;-80
2023/06/08 05:25:36;;;;;;;0.80;0.77;;;17.30;99.90;;;17.76;100.00;100586.75;4892118;29;20236;-80
2023/06/08 05:28:04;;;;;;;0.68;0.68;;;17.40;99.90;;;17.83;100.00;100588.41;4894579;29;20232;-82
2023/06/08 05:30:31;;;;;;;0.47;0.47;;;17.40;99.90;;;17.90;100.00;100573.13;4896383;29;20235;-79
2023/06/08 05:33:01;;;;;;;0.80;0.80;;;17.50;99.90;;;17.92;100.00;100571.28;4897081;29;20250;-80
2023/06/08 05:35:29;;;;;;;0.70;0.70;;;17.50;99.90;;;17.95;100.00;100570.34;4896145;29;20272;-82
2023/06/08 05:37:56;;;;;;;0.70;0.70;;;17.50;99.90;;;18.04;100.00;100565.72;4899071;29;20246;-81
2023/06/08 05:40:24;;;;;;;0.70;0.70;;;17.60;99.90;;;18.20;100.00;100563.59;4896023;29;20243;-81
2023/06/08 05:42:52;;;;;;;1.13;1.05;;;17.70;99.90;;;18.28;100.00;100569.72;4890768;29;20243;-79
2023/06/08 05:45:19;;;;;;;0.93;0.85;;;17.90;99.90;;;18.32;100.00;100559.84;4887080;29;20243;-77
2023/06/08 05:47:46;;;;;;;1.25;0.93;;;17.90;99.90;;;18.32;100.00;100546.44;4891186;29;20239;-78
2023/06/08 05:50:14;;;;;;;0.70;0.70;;;17.90;99.90;;;18.29;100.00;100535.81;4890134;29;20239;-78
2023/06/08 05:52:41;;;;;;;0.70;0.70;;;17.90;99.90;;;18.47;100.00;100533.63;4891637;29;20681;-77
2023/06/08 05:55:08;;;;;;;1.10;1.10;;;18.00;99.90;;;18.58;100.00;100536.06;4895412;29;20248;-77
2023/06/08 05:57:39;;;;;;;0.70;0.70;;;18.10;99.90;;;18.67;100.00;100532.31;4895209;29;20313;-79
2023/06/08 06:00:12;;;;;;;0.80;0.80;;;18.20;99.90;;;18.69;100.00;100531.38;4893632;29;20255;-78
2023/06/08 06:02:41;;;;;;;1.08;0.95;;;18.20;99.90;;;18.62;100.00;100518.16;4891856;29;20243;-79
2023/06/08 06:05:09;;;;;;;1.50;1.23;;;18.20;99.90;;;18.74;100.00;100523.22;4893451;29;20235;-79
2023/06/08 06:07:37;;;;;;;1.00;0.90;;;18.40;99.90;;;18.93;100.00;100521.00;4904199;29;20269;-79
2023/06/08 06:10:05;;;;;;;1.60;1.00;;;18.40;99.90;;;19.03;100.00;100511.81;4891485;29;20235;-80
2023/06/08 06:12:33;;;;;;;1.10;0.90;;;18.60;99.90;;;19.14;100.00;100513.31;4895426;29;20677;-79
2023/06/08 06:15:00;;;;;;;0.60;0.60;;;18.70;99.90;;;19.19;100.00;100515.88;4891865;29;20247;-82
2023/06/08 06:17:27;;;;;;;1.38;1.27;;;18.70;99.90;;;19.19;100.00;100505.16;4892214;29;20247;-82
2023/06/08 06:19:55;;;;;;;1.23;1.05;;;18.60;99.90;;;19.27;100.00;100505.84;4875912;29;20259;-79
2023/06/08 06:22:22;;;;;;;0.80;0.77;;;18.90;99.90;;;19.36;100.00;100505.63;4896270;29;20251;-79
2023/06/08 06:24:50;;;;;;;0.40;0.40;;;18.90;99.90;;;19.65;100.00;100498.66;4888219;29;20324;-79
2023/06/08 06:27:19;;;;;;;1.38;1.27;;;19.10;99.90;;;19.78;100.00;100505.44;4890171;29;20258;-80
2023/06/08 06:29:46;;;;;;;0.50;0.50;;;19.20;99.90;;;19.70;100.00;100475.28;4888975;29;20236;-79
2023/06/08 06:32:13;;;;;;;1.30;1.20;;;19.20;99.90;;;20.08;100.00;100469.69;4890865;29;20303;-81
2023/06/08 06:34:45;;;;;;;0.63;0.60;;;19.50;99.90;;;19.96;100.00;100464.69;4896622;29;20331;-82
2023/06/08 06:37:13;;;;;;;2.17;2.05;;;19.60;99.90;;;20.14;100.00;100464.13;4892042;29;20246;-80
2023/06/08 06:39:40;;;;;;;1.27;1.13;;;19.80;99.90;;;20.47;100.00;100472.13;4906432;29;20246;-81
2023/06/08 06:42:07;;;;;;;0.82;0.77;;;;;;;20.36;100.00;100448.25;4896079;29;20232;-81
2023/06/08 06:44:34;;;;;;;0.93;0.82;;;19.90;99.90;;;20.23;100.00;100425.38;4893444;29;20626;-81
2023/06/08 06:47:02;;;;;;;0.90;0.80;;;19.90;99.90;;;20.50;100.00;100428.16;4891122;29;20231;-79
2023/06/08 06:49:29;;;;;;;0.70;0.60;;;20.00;99.90;;;21.01;100.00;100436.34;4896148;29;20248;-81
2023/06/08 06:51:56;;;;;;;0.70;0.68;;;20.40;99.90;;;20.91;100.00;100391.91;4894508;29;20250;-81
2023/06/08 06:54:23;;;;;;;0.80;0.80;;;20.50;99.90;;;20.98;100.00;100380.00;4895792;29;20227;-79
2023/06/08 06:56:51;;;;;;;0.85;0.82;;;20.60;99.90;;;21.83;100.00;100408.34;4901779;29;20243;-79
2023/06/08 06:59:20;;;;;;;0.57;0.50;;;21.10;99.90;;;21.94;100.00;100363.03;4896579;29;20240;-83
2023/06/08 07:01:47;;;;;;;1.23;0.70;;;21.50;99.90;;;22.00;100.00;100352.91;4895930;29;20235;-79
2023/06/08 07:04:17;;;;;;;0.88;0.70;;;21.60;99.90;;;22.16;100.00;100336.22;4901818;29;20239;-79
2023/06/08 07:06:47;;;;;;;1.25;1.15;;;21.70;99.90;;;22.57;100.00;100359.66;4893506;29;20235;-80
2023/06/08 07:09:17;;;;;;;1.50;1.40;;;22.40;99.90;;;22.72;100.00;100320.38;4883777;29;20231;-79
2023/06/08 07:11:44;;;;;;;0.93;0.88;;;22.20;99.90;;;22.71;100.00;100298.88;4871929;29;20708;-78
2023/06/08 07:14:11;;;;;;;0.63;0.63;;;22.20;99.90;;;22.12;100.00;100269.94;4895444;29;20342;-78
2023/06/08 07:16:38;;;;;;;0.50;0.50;;;21.80;99.90;;;21.78;100.00;100248.81;4890766;29;20707;-78
2023/06/08 07:19:05;;;;;;;0.50;0.50;;;21.60;99.90;;;22.22;100.00;100274.00;4896281;29;20246;-78
2023/06/08 07:21:38;;;;;;;1.23;1.13;;;21.70;99.90;;;22.86;100.00;100298.25;4895955;29;20250;-79
2023/06/08 07:24:15;;;;;;;0.60;0.55;;;22.40;99.90;;;21.93;100.00;100188.97;4892897;29;20234;-80
2023/06/08 07:27:03;;;;;;;0.40;0.40;;;21.80;99.90;;;21.97;100.00;100191.47;4895349;29;20313;-81
2023/06/08 07:29:30;;;;;;;1.30;1.20;;;21.80;99.90;;;21.86;100.00;100187.47;4895437;29;20321;-80
2023/06/08 07:31:57;;;;;;;0.68;0.68;;;21.70;99.90;;;22.16;100.00;100205.09;4895844;29;20246;-83
2023/06/08 07:34:26;;;;;;;0.93;0.85;;;21.90;99.90;;;22.10;100.00;100164.06;4895709;29;20266;-82
2023/06/08 07:36:53;;;;;;;1.00;0.93;;;21.80;99.90;;;22.68;100.00;100208.25;4881932;29;20412;-80
2023/06/08 07:39:20;;;;;;;0.85;0.80;;;22.30;99.90;;;22.81;100.00;100222.97;4894484;29;20235;-81
2023/06/08 07:41:47;;;;;;;0.73;0.57;;;22.40;99.90;;;22.89;100.00;100209.13;4893127;29;20235;-80
2023/06/08 07:44:15;;;;;;;0.68;0.60;;;22.40;99.90;;;22.63;100.00;100148.28;4895516;29;20325;-84
2023/06/08 07:46:42;;;;;;;0.93;0.80;;;22.30;99.90;;;22.68;100.00;100112.06;4892120;29;20241;-81
2023/06/08 07:49:09;;;;;;;0.40;0.40;;;22.10;99.90;;;23.25;100.00;100139.13;4897611;29;20686;-81
2023/06/08 07:51:37;;;;;;;0.50;0.50;;;22.70;99.90;;;22.97;100.00;100066.72;4896505;29;20254;-81
2023/06/08 07:54:04;;;;;;;1.00;0.90;;;22.70;99.90;;;22.61;100.00;100056.69;4895465;29;20230;-81
2023/06/08 07:56:33;;;;;;;1.15;1.05;;;22.60;99.90;;;22.74;100.00;100064.22;4897481;29;20246;-82
2023/06/08 07:59:00;;;;;;;0.93;0.93;;;22.40;99.90;;;23.26;100.00;100098.56;4902901;29;20239;-81
2023/06/08 08:01:27;;;;;;;0.98;0.85;;;22.90;99.90;;;23.98;100.00;100100.44;4902770;29;20243;-81
2023/06/08 08:03:54;;;;;;;1.75;1.42;;;24.10;99.90;;;24.09;100.00;100038.63;4895778;29;20246;-82
2023/06/08 08:06:22;;;;;;;1.35;0.88;;;24.10;99.90;;;24.54;100.00;100075.84;4896542;29;20238;-82
2023/06/08 08:08:49;;;;;;;1.02;0.95;;;24.20;99.90;;;23.50;100.00;99901.34;4894831;29;20270;-80
2023/06/08 08:11:16;;;;;;;0.75;0.75;;;23.80;99.90;;;23.54;100.00;99970.41;4894506;29;20231;-80
2023/06/08 08:13:43;;;;;;;1.13;1.00;;;23.40;99.90;;;23.25;100.00;99925.97;4895682;29;20285;-79
2023/06/08 08:16:10;;;;;;;0.73;0.70;;;23.20;99.90;;;24.08;100.00;99981.97;4890806;29;20247;-77
2023/06/08 08:18:38;;;;;;;1.13;0.88;;;23.50;99.90;;;24.78;100.00;100016.88;4894318;29;20235;-77
2023/06/08 08:21:05;;;;;;;0.88;0.65;;;23.40;99.90;;;23.57;100.00;99871.28;4904890;29;20238;-77
2023/06/08 08:23:32;;;;;;;0.80;0.77;;;23.40;99.90;;;24.19;100.00;99923.69;4892735;29;20239;-78
2023/06/08 08:26:00;;;;;;;0.55;0.52;;;23.80;99.90;;;24.52;100.00;99964.22;4892592;29;20234;-83
2023/06/08 08:28:28;;;;;;;0.88;0.75;;;24.10;99.90;;;24.22;100.00;99883.00;4895199;29;20246;-80
2023/06/08 08:30:56;;;;;;;4.05;1.67;;;24.10;99.90;;;24.58;100.00;99901.69;4896526;29;20385;-81
2023/06/08 08:33:26;;;;;;;0.50;0.50;;;24.40;99.90;;;24.51;100.00;99872.41;4901077;29;20286;-80
2023/06/08 08:35:53;;;;;;;1.10;1.02;;;24.30;99.90;;;24.86;100.00;99886.63;4900544;29;20239;-80
2023/06/08 08:38:20;;;;;;;1.20;1.10;;;24.60;99.90;;;24.50;100.00;99817.47;4900421;29;20243;-81
2023/06/08 08:40:51;;;;;;;1.13;0.95;;;24.30;99.90;;;24.76;100.00;99839.44;4904528;29;20294;-80
2023/06/08 08:43:24;;;;;;;0.93;0.88;;;24.50;99.90;;;24.42;100.00;99760.28;4895107;29;20243;-81
2023/06/08 08:45:51;;;;;;;0.70;0.70;;;24.40;99.90;;;24.87;100.00;99808.09;4893161;29;20238;-80
2023/06/08 08:48:21;;;;;;;1.10;1.00;;;24.50;99.90;;;24.99;100.00;99790.28;4892492;29;20240;-81
2023/06/08 08:50:57;;;;;;;0.95;0.80;;;24.90;99.90;;;25.17;100.00;99802.69;4879492;29;20361;-81
2023/06/08 08:53:30;;;;;;;0.40;0.40;;;24.90;99.90;;;25.23;100.00;99776.22;4894755;29;20242;-80
2023/06/08 08:55:59;;;;;;;1.20;1.10;;;25.00;99.90;;;25.34;100.00;99757.47;4898035;29;20253;-80
2023/06/08 08:58:27;;;;;;;0.80;0.80;;;25.20;99.90;;;25.42;100.00;99730.81;4895920;29;20235;-81
2023/06/08 09:00:54;;;;;;;1.77;1.42;;;25.30;99.90;;;25.32;100.00;99683.63;4894963;29;20715;-82
2023/06/08 09:03:21;;;;;;;0.50;0.50;;;25.30;99.90;;;25.63;100.00;99725.88;4897804;29;20243;-83
2023/06/08 09:05:52;;;;;;;0.93;0.85;;;25.80;99.90;;;26.41;100.00;99727.09;4894794;29;20247;-81
2023/06/08 09:08:19;;;;;;;1.00;0.80;;;25.80;99.90;;;25.97;100.00;99619.78;4889028;29;20235;-80
2023/06/08 09:11:04;;;;;;;1.70;1.08;;;25.80;99.90;;;26.06;100.00;99586.69;4889041;29;20243;-80
2023/06/08 09:16:17;;;;;;;2.72;1.75;;;25.40;99.90;;;26.04;100.00;99533.56;5224283;23;20302;-86
2023/06/08 09:19:02;;;;;;;0.50;0.50;;;25.60;99.90;;;26.23;100.00;99512.34;4895657;29;20238;-83
2023/06/08 09:21:29;;;;;;;0.40;0.40;;;25.70;99.90;;;26.53;100.00;99520.19;4896427;29;20246;-84
2023/06/08 09:24:14;;;;;;;0.80;0.47;;;25.90;99.80;;;25.78;100.00;99399.91;4895868;29;20247;-84
2023/06/08 09:26:49;;;;;;;0.60;0.60;;;25.90;99.60;;;26.52;100.00;99466.06;4893707;29;20327;-84
2023/06/08 09:29:40;;;;;;;0.88;0.65;;;26.20;99.90;;;26.08;100.00;99434.84;4898155;23;20239;-80
2023/06/08 09:32:12;;;;;;;1.33;0.80;;;25.70;98.70;;;25.83;100.00;99341.75;4884074;29;20327;-81
2023/06/08 09:34:49;;;;;;;1.10;0.93;;;25.80;99.00;;;26.33;100.00;99367.09;4879593;29;20239;-82
2023/06/08 09:37:18;;;;;;;0.82;0.82;;;25.90;99.10;;;27.02;100.00;99392.72;4877885;29;20247;-83
2023/06/08 09:39:46;;;;;;;0.70;0.70;;;26.70;98.70;;;26.84;100.00;99320.81;4879159;29;20299;-81
2023/06/08 09:42:13;;;;;;;1.08;0.75;;;26.90;97.90;;;27.21;97.65;99305.34;4876828;29;20236;-81
2023/06/08 09:44:40;;;;;;;1.05;0.80;;;26.50;97.30;;;26.62;100.00;99247.50;4879714;29;20250;-80
2023/06/08 09:47:25;;;;;;;0.90;0.63;;;26.20;96.90;;;26.39;98.34;99178.75;4876578;29;20290;-79
2023/06/08 09:49:54;;;;;;;0.80;0.73;;;26.10;97.10;;;26.18;99.19;99143.28;4862998;29;20227;-80
2023/06/08 09:52:24;;;;;;;0.77;0.50;;;25.70;97.60;;;26.20;100.00;99181.09;4877256;29;20247;-79
2023/06/08 09:54:52;;;;;;;1.20;0.80;;;25.80;98.00;;;26.65;98.86;99201.16;4878457;29;20728;-80
2023/06/08 09:57:20;;;;;;;0.93;0.60;;;26.20;97.50;;;26.67;100.00;99210.03;4861593;29;20255;-80
2023/06/08 09:59:53;;;;;;;0.90;0.65;;;26.50;98.00;;;26.60;97.80;99151.84;4876374;29;20254;-80
2023/06/08 10:03:28;;;;;;;0.90;0.70;;;26.60;96.90;;;27.02;95.19;99151.22;4860841;29;20235;-80
2023/06/08 10:05:58;;;;;;;0.90;0.68;;;26.20;97.10;;;26.94;90.52;99066.84;4858922;29;20236;-80
2023/06/08 10:08:27;;;;;;;0.40;0.40;;;26.80;95.70;;;27.04;95.25;99115.84;4876382;29;20250;-80
2023/06/08 10:10:55;;;;;;;0.95;0.75;;;26.50;97.00;;;27.72;91.38;99151.03;4891345;29;20243;-83
2023/06/08 10:27:18;;;;;;;1.00;0.70;;;28.30;92.60;;;28.49;81.56;98985.06;4886256;29;20570;-82
2023/06/08 10:29:57;;;;;;;0.40;0.40;;;28.40;93.90;;;27.91;72.82;98777.31;4891282;29;20247;-81
2023/06/08 10:32:36;;;;;;;0.20;0.20;;;28.00;91.10;;;28.71;76.59;98917.91;4909577;29;20241;-82
2023/06/08 10:35:07;;;;;;;0.50;0.40;;;28.00;93.20;;;29.59;76.57;98995.13;4908703;29;20292;-83
2023/06/08 10:37:37;;;;;;;0.40;0.40;;;29.10;93.70;;;30.05;70.36;98911.00;4915071;29;20257;-83